createdAt,value
2019-01-13T00:02:11.812Z,3.70
2019-01-13T00:04:51.718Z,3.80
2019-01-13T00:07:31.925Z,3.80
2019-01-13T00:10:11.866Z,3.80
2019-01-13T00:12:51.907Z,3.80
2019-01-13T00:15:32.378Z,3.70
2019-01-13T00:18:12.264Z,3.80
2019-01-13T00:20:39.665Z,3.80
2019-01-13T00:23:26.498Z,3.80
2019-01-13T00:26:06.269Z,3.80
2019-01-13T00:28:46.078Z,3.80
2019-01-13T00:31:26.252Z,3.80
2019-01-13T00:34:06.399Z,3.80
2019-01-13T00:36:46.379Z,3.80
2019-01-13T00:39:26.567Z,3.90
2019-01-13T00:42:07.055Z,3.80
2019-01-13T00:44:47.023Z,3.80
2019-01-13T00:47:27.043Z,3.90
2019-01-13T00:50:06.744Z,3.90
2019-01-13T00:52:46.747Z,3.90
2019-01-13T00:55:26.780Z,3.90
2019-01-13T00:58:07.301Z,3.90
2019-01-13T01:00:47.205Z,3.90
2019-01-13T01:03:27.250Z,3.90
2019-01-13T01:06:07.274Z,4.00
2019-01-13T01:08:47.361Z,3.90
2019-01-13T01:11:27.531Z,4.00
2019-01-13T01:14:07.620Z,4.00
2019-01-13T01:16:47.509Z,4.00
2019-01-13T01:19:27.916Z,4.00
2019-01-13T01:22:07.700Z,4.00
2019-01-13T01:24:47.808Z,4.00
2019-01-13T01:27:27.834Z,4.00
2019-01-13T01:30:08.016Z,4.00
2019-01-13T01:32:47.939Z,4.10
2019-01-13T01:35:27.956Z,4.10
2019-01-13T01:38:08.119Z,4.10
2019-01-13T01:40:48.253Z,4.10
2019-01-13T01:43:28.178Z,4.10
2019-01-13T01:46:08.176Z,4.10
2019-01-13T01:48:48.257Z,4.10
2019-01-13T01:51:28.514Z,4.10
2019-01-13T01:54:09.600Z,4.10
2019-01-13T01:56:49.708Z,4.10
2019-01-13T01:59:30.057Z,4.10
2019-01-13T02:02:10.541Z,4.10
2019-01-13T02:04:50.418Z,4.10
2019-01-13T02:07:30.586Z,4.20
2019-01-13T02:10:10.964Z,4.20
2019-01-13T02:12:50.795Z,4.20
2019-01-13T02:15:30.823Z,4.20
2019-01-13T02:18:11.179Z,4.20
2019-01-13T02:20:52.019Z,4.20
2019-01-13T02:23:32.053Z,4.20
2019-01-13T02:26:12.440Z,4.20
2019-01-13T02:28:52.105Z,4.20
2019-01-13T02:31:32.490Z,4.30
2019-01-13T02:34:12.737Z,4.20
2019-01-13T02:36:52.898Z,4.30
2019-01-13T02:39:33.025Z,4.20
2019-01-13T02:42:13.098Z,4.20
2019-01-13T02:44:53.073Z,4.20
2019-01-13T02:47:33.993Z,4.30
2019-01-13T02:50:14.243Z,4.20
2019-01-13T02:52:54.736Z,4.30
2019-01-13T02:55:34.535Z,4.30
2019-01-13T02:58:14.739Z,4.30
2019-01-13T03:00:57.298Z,4.30
2019-01-13T03:03:37.181Z,4.30
2019-01-13T03:06:16.996Z,4.30
2019-01-13T03:08:57.409Z,4.30
2019-01-13T03:11:37.157Z,4.30
2019-01-13T03:14:17.341Z,4.40
2019-01-13T03:16:57.283Z,4.40
2019-01-13T03:19:37.343Z,4.40
2019-01-13T03:22:17.802Z,4.40
2019-01-13T03:24:57.384Z,4.40
2019-01-13T03:27:37.560Z,4.40
2019-01-13T03:30:17.595Z,4.50
2019-01-13T03:32:57.965Z,4.50
2019-01-13T03:35:38.074Z,4.50
2019-01-13T03:38:18.257Z,4.50
2019-01-13T03:40:58.490Z,4.50
2019-01-13T03:43:38.556Z,4.50
2019-01-13T03:46:18.690Z,4.60
2019-01-13T03:48:58.465Z,4.60
2019-01-13T03:51:38.727Z,4.60
2019-01-13T03:54:18.748Z,4.60
2019-01-13T03:56:58.812Z,4.60
2019-01-13T03:59:38.825Z,4.60
2019-01-13T04:02:19.121Z,4.60
2019-01-13T04:04:59.366Z,4.70
2019-01-13T04:07:39.330Z,4.60
2019-01-13T04:10:19.052Z,4.60
2019-01-13T04:12:59.366Z,4.70
2019-01-13T04:15:39.437Z,4.70
2019-01-13T04:24:17.490Z,4.80
2019-01-13T04:26:57.789Z,4.80
2019-01-13T04:29:37.800Z,4.70
2019-01-13T04:32:17.799Z,4.80
2019-01-13T04:34:57.971Z,4.80
2019-01-13T04:37:38.218Z,4.80
2019-01-13T04:40:18.884Z,4.80
2019-01-13T04:42:58.808Z,4.80
2019-01-13T04:45:38.793Z,4.80
2019-01-13T04:48:19.122Z,4.80
2019-01-13T04:50:59.396Z,4.90
2019-01-13T04:53:39.164Z,4.80
2019-01-13T04:56:19.367Z,4.90
2019-01-13T04:58:59.494Z,4.90
2019-01-13T05:01:39.652Z,4.90
2019-01-13T05:04:19.578Z,4.90
2019-01-13T05:06:59.503Z,4.90
2019-01-13T05:09:39.520Z,4.90
2019-01-13T05:12:20.023Z,4.90
2019-01-13T05:14:59.596Z,4.90
2019-01-13T05:17:39.552Z,5.00
2019-01-13T05:20:19.961Z,5.00
2019-01-13T05:23:00.926Z,5.00
2019-01-13T05:25:41.940Z,5.00
2019-01-13T05:28:22.068Z,5.00
2019-01-13T05:31:05.247Z,5.00
2019-01-13T05:33:45.433Z,5.00
2019-01-13T05:36:25.674Z,5.00
2019-01-13T05:39:05.472Z,5.00
2019-01-13T05:41:45.302Z,5.00
2019-01-13T05:44:25.926Z,5.00
2019-01-13T05:49:45.831Z,5.00
2019-01-13T05:52:25.844Z,5.10
2019-01-13T05:55:05.887Z,5.00
2019-01-13T05:57:46.011Z,5.10
2019-01-13T06:00:26.921Z,5.10
2019-01-13T06:03:07.101Z,5.10
2019-01-13T06:05:47.394Z,5.10
2019-01-13T06:08:27.370Z,5.10
2019-01-13T06:11:07.455Z,5.10
2019-01-13T06:13:47.431Z,5.10
2019-01-13T06:16:27.683Z,5.10
2019-01-13T06:19:07.994Z,5.10
2019-01-13T06:21:47.988Z,5.10
2019-01-13T06:24:28.254Z,5.10
2019-01-13T06:27:07.975Z,5.10
2019-01-13T06:29:48.193Z,5.10
2019-01-13T06:32:28.160Z,5.20
2019-01-13T06:35:08.170Z,5.20
2019-01-13T06:37:48.638Z,5.20
2019-01-13T06:40:28.996Z,5.20
2019-01-13T06:43:08.831Z,5.30
2019-01-13T06:45:49.420Z,5.20
2019-01-13T06:48:29.519Z,5.20
2019-01-13T06:51:09.252Z,5.20
2019-01-13T06:53:49.448Z,5.30
2019-01-13T06:56:30.093Z,5.30
2019-01-13T06:59:10.513Z,5.30
2019-01-13T07:01:50.692Z,5.30
2019-01-13T07:04:30.886Z,5.30
2019-01-13T07:07:11.005Z,5.20
2019-01-13T07:09:50.994Z,5.20
2019-01-13T07:12:31.208Z,5.20
2019-01-13T07:15:11.231Z,5.20
2019-01-13T07:17:51.347Z,5.20
2019-01-13T07:20:31.489Z,5.20
2019-01-13T07:23:11.362Z,5.30
2019-01-13T07:25:51.383Z,5.30
2019-01-13T07:28:31.252Z,5.20
2019-01-13T07:31:12.042Z,5.20
2019-01-13T07:33:51.729Z,5.20
2019-01-13T07:36:31.814Z,5.20
2019-01-13T07:39:12.304Z,5.20
2019-01-13T07:41:52.541Z,5.20
2019-01-13T07:44:32.515Z,5.30
2019-01-13T07:47:12.809Z,5.30
2019-01-13T07:49:52.708Z,5.30
2019-01-13T07:52:32.988Z,5.30
2019-01-13T07:55:13.047Z,5.30
2019-01-13T07:57:53.196Z,5.30
2019-01-13T08:00:33.445Z,5.30
2019-01-13T08:03:14.583Z,5.30
2019-01-13T08:05:54.414Z,5.30
2019-01-13T08:08:34.739Z,5.30
2019-01-13T08:11:14.808Z,5.30
2019-01-13T08:13:55.101Z,5.40
2019-01-13T08:16:34.970Z,5.40
2019-01-13T08:19:15.076Z,5.40
2019-01-13T08:21:54.989Z,5.40
2019-01-13T08:24:35.133Z,5.40
2019-01-13T08:27:14.893Z,5.40
2019-01-13T08:29:55.182Z,5.50
2019-01-13T08:32:35.184Z,5.40
2019-01-13T08:35:15.236Z,5.50
2019-01-13T08:37:55.159Z,5.50
2019-01-13T08:40:35.332Z,5.60
2019-01-13T08:43:15.287Z,5.60
2019-01-13T08:45:55.555Z,5.60
2019-01-13T08:51:15.864Z,5.60
2019-01-13T08:53:56.051Z,5.60
2019-01-13T08:56:36.318Z,5.60
2019-01-13T08:59:16.344Z,5.60
2019-01-13T09:01:56.612Z,5.60
2019-01-13T09:04:37.160Z,5.60
2019-01-13T09:07:17.005Z,5.60
2019-01-13T09:09:57.409Z,5.60
2019-01-13T09:12:37.163Z,5.60
2019-01-13T09:15:17.747Z,5.60
2019-01-13T09:17:57.724Z,5.70
2019-01-13T09:20:37.937Z,5.70
2019-01-13T09:23:17.755Z,5.70
2019-01-13T09:25:57.753Z,5.70
2019-01-13T09:28:38.203Z,5.70
2019-01-13T09:31:18.072Z,5.60
2019-01-13T09:33:58.424Z,5.70
2019-01-13T09:36:26.165Z,5.60
2019-01-13T09:39:13.028Z,5.60
2019-01-13T09:41:53.936Z,5.60
2019-01-13T09:44:33.799Z,5.60
2019-01-13T09:47:13.593Z,5.60
2019-01-13T09:49:53.978Z,5.60
2019-01-13T09:52:34.642Z,5.60
2019-01-13T09:55:14.947Z,5.60
2019-01-13T09:57:54.844Z,5.60
2019-01-13T10:00:35.133Z,5.60
2019-01-13T10:03:15.036Z,5.60
2019-01-13T10:05:55.296Z,5.60
2019-01-13T10:08:35.182Z,5.60
2019-01-13T10:11:15.349Z,5.60
2019-01-13T10:13:55.755Z,5.60
2019-01-13T10:16:35.442Z,5.60
2019-01-13T10:19:15.917Z,5.60
2019-01-13T10:21:55.466Z,5.60
2019-01-13T10:24:35.526Z,5.60
2019-01-13T10:29:55.769Z,5.70
2019-01-13T10:32:35.709Z,5.70
2019-01-13T10:35:16.027Z,5.70
2019-01-13T10:37:56.207Z,5.70
2019-01-13T10:40:36.288Z,5.70
2019-01-13T10:43:16.275Z,5.70
2019-01-13T10:45:56.640Z,5.70
2019-01-13T10:48:36.615Z,5.80
2019-01-13T10:51:16.651Z,5.80
2019-01-13T10:53:57.104Z,5.80
2019-01-13T10:56:36.970Z,5.80
2019-01-13T10:59:16.978Z,5.80
2019-01-13T11:01:57.622Z,5.80
2019-01-13T11:04:38.257Z,5.80
2019-01-13T11:07:18.364Z,5.90
2019-01-13T11:09:58.749Z,5.80
2019-01-13T11:12:38.655Z,5.90
2019-01-13T11:15:21.798Z,5.90
2019-01-13T11:18:00.986Z,6.00
2019-01-13T11:20:41.210Z,5.90
2019-01-13T11:23:21.668Z,5.90
2019-01-13T11:26:02.299Z,6.00
2019-01-13T11:28:42.539Z,6.00
2019-01-13T11:31:22.320Z,6.00
2019-01-13T11:34:02.257Z,6.00
2019-01-13T11:36:42.390Z,6.00
2019-01-13T11:39:22.537Z,6.00
2019-01-13T11:42:02.765Z,6.10
2019-01-13T11:44:42.838Z,6.10
2019-01-13T11:47:23.204Z,6.10
2019-01-13T11:50:03.355Z,6.10
2019-01-13T11:52:43.355Z,6.20
2019-01-13T11:55:23.228Z,6.20
2019-01-13T11:58:03.510Z,6.20
2019-01-13T12:00:43.595Z,6.20
2019-01-13T12:03:23.980Z,6.30
2019-01-13T12:06:04.110Z,6.30
2019-01-13T12:08:31.675Z,6.30
2019-01-13T12:11:18.508Z,6.30
2019-01-13T12:14:01.443Z,6.30
2019-01-13T12:16:40.956Z,6.40
2019-01-13T12:19:20.577Z,6.40
2019-01-13T12:22:01.211Z,6.40
2019-01-13T12:24:40.853Z,6.40
2019-01-13T12:27:20.963Z,6.40
2019-01-13T12:30:01.042Z,6.40
2019-01-13T12:32:41.460Z,6.50
2019-01-13T12:35:22.005Z,6.50
2019-01-13T12:38:02.657Z,6.50
2019-01-13T12:40:42.718Z,6.60
2019-01-13T12:43:22.849Z,6.60
2019-01-13T12:46:02.876Z,6.60
2019-01-13T12:48:43.475Z,6.60
2019-01-13T12:51:11.323Z,6.60
2019-01-13T12:53:58.312Z,6.60
2019-01-13T12:56:38.372Z,6.70
2019-01-13T12:59:18.270Z,6.70
2019-01-13T13:01:59.522Z,6.70
2019-01-13T13:04:39.492Z,6.70
2019-01-13T13:07:19.950Z,6.80
2019-01-13T13:10:00.992Z,6.80
2019-01-13T13:12:41.136Z,6.80
2019-01-13T13:15:21.076Z,6.80
2019-01-13T13:18:00.874Z,6.80
2019-01-13T13:20:41.213Z,6.90
2019-01-13T13:23:21.249Z,7.00
2019-01-13T13:26:01.428Z,7.00
2019-01-13T13:28:41.475Z,7.00
2019-01-13T13:31:21.370Z,7.00
2019-01-13T13:34:01.513Z,7.00
2019-01-13T13:36:41.802Z,7.10
2019-01-13T13:39:21.907Z,7.10
2019-01-13T13:42:01.647Z,7.10
2019-01-13T13:44:45.099Z,7.10
2019-01-13T13:47:24.869Z,7.10
2019-01-13T13:50:06.231Z,7.10
2019-01-13T13:52:46.268Z,7.10
2019-01-13T13:55:26.604Z,7.20
2019-01-13T13:58:06.956Z,7.20
2019-01-13T14:00:47.002Z,7.20
2019-01-13T14:03:27.426Z,7.20
2019-01-13T14:06:07.602Z,7.20
2019-01-13T14:08:48.097Z,7.20
2019-01-13T14:11:28.847Z,7.20
2019-01-13T14:14:09.084Z,7.20
2019-01-13T14:16:49.364Z,7.10
2019-01-13T14:19:29.472Z,7.20
2019-01-13T14:22:09.554Z,7.20
2019-01-13T14:24:49.680Z,7.20
2019-01-13T14:27:30.019Z,7.20
2019-01-13T14:30:09.779Z,7.20
2019-01-13T14:32:49.863Z,7.20
2019-01-13T14:35:30.028Z,7.20
2019-01-13T14:38:10.076Z,7.20
2019-01-13T14:40:50.271Z,7.20
2019-01-13T14:43:30.684Z,7.20
2019-01-13T14:46:10.628Z,7.30
2019-01-13T14:48:50.402Z,7.30
2019-01-13T14:51:30.639Z,7.30
2019-01-13T14:54:11.108Z,7.30
2019-01-13T14:56:51.390Z,7.40
2019-01-13T14:59:31.060Z,7.30
2019-01-13T15:02:11.280Z,7.30
2019-01-13T15:04:51.503Z,7.30
2019-01-13T15:07:31.257Z,7.30
2019-01-13T15:10:11.647Z,7.30
2019-01-13T15:12:51.425Z,7.30
2019-01-13T15:15:31.601Z,7.30
2019-01-13T15:18:11.539Z,7.30
2019-01-13T15:20:51.938Z,7.30
2019-01-13T15:23:31.963Z,7.30
2019-01-13T15:26:12.344Z,7.30
2019-01-13T15:28:52.359Z,7.30
2019-01-13T15:31:32.321Z,7.30
2019-01-13T15:34:12.410Z,7.30
2019-01-13T15:36:52.700Z,7.30
2019-01-13T15:39:32.868Z,7.30
2019-01-13T15:42:13.126Z,7.30
2019-01-13T15:44:53.039Z,7.20
2019-01-13T15:47:33.360Z,7.30
2019-01-13T15:50:13.542Z,7.30
2019-01-13T15:52:53.573Z,7.30
2019-01-13T15:55:34.008Z,7.20
2019-01-13T15:58:13.764Z,7.30
2019-01-13T16:00:54.322Z,7.30
2019-01-13T16:03:34.126Z,7.30
2019-01-13T16:06:14.808Z,7.30
2019-01-13T16:08:54.423Z,7.30
2019-01-13T16:11:34.454Z,7.30
2019-01-13T16:14:14.904Z,7.40
2019-01-13T16:16:55.008Z,7.40
2019-01-13T16:19:35.119Z,7.30
2019-01-13T16:22:16.315Z,7.40
2019-01-13T16:24:56.318Z,7.40
2019-01-13T16:27:36.696Z,7.40
2019-01-13T16:30:16.656Z,7.50
2019-01-13T16:32:56.632Z,7.50
2019-01-13T16:35:36.772Z,7.50
2019-01-13T16:40:57.934Z,7.50
2019-01-13T16:43:38.276Z,7.40
2019-01-13T16:46:18.085Z,7.40
2019-01-13T16:48:59.283Z,7.40
2019-01-13T16:51:39.686Z,7.40
2019-01-13T16:54:19.808Z,7.40
2019-01-13T16:56:59.883Z,7.40
2019-01-13T16:59:39.919Z,7.40
2019-01-13T17:02:20.048Z,7.40
2019-01-13T17:05:00.268Z,7.40
2019-01-13T17:07:40.224Z,7.40
2019-01-13T17:10:20.022Z,7.40
2019-01-13T17:13:00.331Z,7.40
2019-01-13T17:15:40.187Z,7.40
2019-01-13T17:18:20.360Z,7.40
2019-01-13T17:21:00.508Z,7.40
2019-01-13T17:23:40.784Z,7.40
2019-01-13T17:26:21.122Z,7.40
2019-01-13T17:29:01.388Z,7.40
2019-01-13T17:31:41.318Z,7.40
2019-01-13T17:34:21.262Z,7.40
2019-01-13T17:37:01.789Z,7.40
2019-01-13T17:39:41.570Z,7.40
2019-01-13T17:42:21.352Z,7.40
2019-01-13T17:45:01.615Z,7.40
2019-01-13T17:47:41.987Z,7.40
2019-01-13T17:52:49.623Z,7.40
2019-01-13T17:55:36.885Z,7.40
2019-01-13T17:58:16.452Z,7.40
2019-01-13T18:00:56.604Z,7.50
2019-01-13T18:03:36.639Z,7.40
2019-01-13T18:06:16.808Z,7.50
2019-01-13T18:08:56.805Z,7.50
2019-01-13T18:11:36.865Z,7.40
2019-01-13T18:14:19.199Z,7.50
2019-01-13T18:17:06.235Z,7.50
2019-01-13T18:19:41.504Z,7.50
2019-01-13T18:22:21.622Z,7.50
2019-01-13T18:25:01.531Z,7.50
2019-01-13T18:27:41.063Z,7.50
2019-01-13T18:30:21.128Z,7.60
2019-01-13T18:33:01.365Z,7.60
2019-01-13T18:35:41.691Z,7.60
2019-01-13T18:38:21.706Z,7.60
2019-01-13T18:41:02.136Z,7.60
2019-01-13T18:43:42.060Z,7.60
2019-01-13T18:46:21.987Z,7.60
2019-01-13T18:49:02.193Z,7.50
2019-01-13T18:51:42.287Z,7.50
2019-01-13T18:54:22.123Z,7.50
2019-01-13T18:57:02.350Z,7.50
2019-01-13T18:59:42.064Z,7.50
2019-01-13T19:02:22.283Z,7.50
2019-01-13T19:05:06.017Z,7.50
2019-01-13T19:07:46.372Z,7.50
2019-01-13T19:10:35.447Z,7.50
2019-01-13T19:13:28.932Z,7.50
2019-01-13T19:16:08.940Z,7.50
2019-01-13T19:18:49.179Z,7.50
2019-01-13T19:21:29.729Z,7.50
2019-01-13T19:24:09.776Z,7.50
2019-01-13T19:26:49.620Z,7.50
2019-01-13T19:29:29.577Z,7.50
2019-01-13T19:32:09.978Z,7.60
2019-01-13T19:34:49.957Z,7.60
2019-01-13T19:37:30.232Z,7.60
2019-01-13T19:40:10.441Z,7.60
2019-01-13T19:42:50.411Z,7.60
2019-01-13T19:45:31.633Z,7.60
2019-01-13T19:48:11.858Z,7.70
2019-01-13T19:50:51.897Z,7.60
2019-01-13T19:53:19.331Z,7.70
2019-01-13T19:56:06.810Z,7.70
2019-01-13T19:58:46.955Z,7.70
2019-01-13T20:01:27.339Z,7.70
2019-01-13T20:04:07.161Z,7.70
2019-01-13T20:06:47.614Z,7.80
2019-01-13T20:09:27.419Z,7.80
2019-01-13T20:12:07.934Z,7.80
2019-01-13T20:14:47.925Z,7.80
2019-01-13T20:17:27.970Z,7.80
2019-01-13T20:20:08.084Z,7.80
2019-01-13T20:22:48.387Z,7.80
2019-01-13T20:25:28.280Z,7.80
2019-01-13T20:28:08.272Z,7.80
2019-01-13T20:30:48.283Z,7.80
2019-01-13T20:33:28.488Z,7.80
2019-01-13T20:36:09.208Z,7.80
2019-01-13T20:38:49.432Z,7.80
2019-01-13T20:41:29.720Z,7.80
2019-01-13T20:44:09.425Z,7.80
2019-01-13T20:46:49.614Z,7.80
2019-01-13T20:49:29.540Z,7.80
2019-01-13T20:52:09.700Z,7.80
2019-01-13T20:54:49.761Z,7.80
2019-01-13T20:57:29.754Z,7.80
2019-01-13T21:00:09.384Z,7.80
2019-01-13T21:02:49.817Z,7.90
2019-01-13T21:05:29.996Z,8.00
2019-01-13T21:08:10.297Z,8.10
2019-01-13T21:10:50.050Z,8.10
2019-01-13T21:13:30.224Z,8.10
2019-01-13T21:16:10.171Z,8.20
2019-01-13T21:18:50.291Z,8.20
2019-01-13T21:21:30.303Z,8.30
2019-01-13T21:24:10.264Z,8.30
2019-01-13T21:26:50.255Z,8.40
2019-01-13T21:29:30.503Z,8.40
2019-01-13T21:32:10.591Z,8.50
2019-01-13T21:34:50.918Z,8.50
2019-01-13T21:37:31.501Z,8.50
2019-01-13T21:40:11.742Z,8.50
2019-01-13T21:42:51.946Z,8.50
2019-01-13T21:45:31.800Z,8.50
2019-01-13T21:48:12.105Z,8.40
2019-01-13T21:50:51.648Z,8.50
2019-01-13T21:53:31.988Z,8.40
2019-01-13T21:56:12.089Z,8.40
2019-01-13T21:58:52.668Z,8.40
2019-01-13T22:01:35.634Z,8.40
2019-01-13T22:04:15.272Z,8.40
2019-01-13T22:06:47.321Z,8.40
2019-01-13T22:09:34.302Z,8.40
2019-01-13T22:12:14.421Z,8.40
2019-01-13T22:14:55.076Z,8.30
2019-01-13T22:17:35.602Z,8.30
2019-01-13T22:20:15.408Z,8.30
2019-01-13T22:22:56.782Z,8.30
2019-01-13T22:25:36.871Z,8.30
2019-01-13T22:28:16.871Z,8.30
2019-01-13T22:30:57.011Z,8.20
2019-01-13T22:33:37.163Z,8.20
2019-01-13T22:36:17.295Z,8.20
2019-01-13T22:38:57.412Z,8.20
2019-01-13T22:41:37.342Z,8.20
2019-01-13T22:44:18.462Z,8.20
2019-01-13T22:46:58.736Z,8.20
2019-01-13T22:49:38.650Z,8.20
2019-01-13T22:52:19.265Z,8.20
2019-01-13T22:54:59.691Z,8.20
2019-01-13T22:57:39.738Z,8.20
2019-01-13T23:00:26.364Z,8.20
2019-01-13T23:03:27.907Z,8.20
2019-01-13T23:06:07.825Z,8.20
2019-01-13T23:08:47.914Z,8.20
2019-01-13T23:11:27.968Z,8.20
2019-01-13T23:14:08.028Z,8.10
2019-01-13T23:16:48.241Z,8.10
2019-01-13T23:19:28.180Z,8.10
2019-01-13T23:22:08.387Z,8.00
2019-01-13T23:24:48.716Z,8.00
2019-01-13T23:27:29.741Z,7.90
2019-01-13T23:30:09.582Z,7.90
2019-01-13T23:32:49.651Z,7.90
2019-01-13T23:35:29.800Z,7.80
2019-01-13T23:38:09.780Z,7.80
2019-01-13T23:40:49.704Z,7.80
2019-01-13T23:43:30.084Z,7.70
2019-01-13T23:46:10.178Z,7.70
2019-01-13T23:48:51.520Z,7.70
2019-01-13T23:51:31.192Z,7.70
2019-01-13T23:54:11.210Z,7.70
2019-01-13T23:56:51.408Z,7.70
2019-01-13T23:59:31.598Z,7.70
